createdAt,value
2019-03-25T00:00:09.889Z,9.50
2019-03-25T00:02:39.019Z,9.70
2019-03-25T00:05:08.554Z,8.00
2019-03-25T00:07:37.884Z,9.08
2019-03-25T00:10:07.539Z,10.32
2019-03-25T00:12:36.581Z,5.87
2019-03-25T00:15:07.850Z,7.75
2019-03-25T00:17:36.984Z,11.15
2019-03-25T00:20:07.360Z,10.93
2019-03-25T00:22:36.606Z,9.60
2019-03-25T00:25:06.903Z,9.18
2019-03-25T00:27:36.052Z,9.60
2019-03-25T00:30:07.716Z,12.03
2019-03-25T00:32:36.879Z,12.03
2019-03-25T00:35:06.618Z,10.85
2019-03-25T00:37:36.007Z,7.55
2019-03-25T00:40:07.891Z,10.28
2019-03-25T00:42:37.330Z,11.22
2019-03-25T00:45:08.641Z,10.50
2019-03-25T00:47:37.763Z,9.58
2019-03-25T00:50:10.127Z,9.08
2019-03-25T00:52:39.189Z,8.70
2019-03-25T00:55:08.340Z,13.98
2019-03-25T00:57:37.476Z,7.40
2019-03-25T01:00:10.628Z,6.50
2019-03-25T01:02:39.844Z,6.85
2019-03-25T01:05:09.258Z,13.98
2019-03-25T01:07:38.423Z,10.08
2019-03-25T01:10:11.085Z,9.78
2019-03-25T01:12:40.200Z,9.95
2019-03-25T01:15:09.555Z,13.22
2019-03-25T01:17:39.017Z,8.85
2019-03-25T01:20:09.731Z,6.90
2019-03-25T01:22:39.311Z,10.13
2019-03-25T01:25:08.417Z,11.53
2019-03-25T01:27:37.521Z,10.25
2019-03-25T01:30:08.443Z,8.75
2019-03-25T01:32:37.584Z,8.60
2019-03-25T01:35:08.368Z,13.90
2019-03-25T01:37:37.813Z,11.12
2019-03-25T01:40:08.623Z,10.35
2019-03-25T01:42:37.735Z,11.45
2019-03-25T01:45:07.494Z,8.65
2019-03-25T01:47:36.584Z,11.70
2019-03-25T01:50:07.385Z,9.60
2019-03-25T01:52:36.775Z,9.15
2019-03-25T01:55:13.445Z,13.50
2019-03-25T01:57:36.828Z,15.13
2019-03-25T02:00:07.835Z,10.32
2019-03-25T02:02:36.997Z,10.70
2019-03-25T02:05:07.298Z,8.90
2019-03-25T02:07:37.349Z,13.95
2019-03-25T02:10:08.495Z,10.40
2019-03-25T02:12:37.651Z,11.48
2019-03-25T02:15:08.186Z,15.08
2019-03-25T02:17:37.286Z,9.98
2019-03-25T02:20:07.495Z,13.18
2019-03-25T02:22:36.739Z,11.33
2019-03-25T02:25:08.726Z,8.63
2019-03-25T02:27:38.198Z,8.58
2019-03-25T02:30:08.186Z,7.25
2019-03-25T02:32:37.286Z,11.68
2019-03-25T02:35:07.196Z,11.25
2019-03-25T02:37:36.421Z,13.35
2019-03-25T02:40:07.028Z,9.90
2019-03-25T02:42:36.454Z,11.30
2019-03-25T02:45:08.835Z,11.33
2019-03-25T02:47:37.950Z,10.35
2019-03-25T02:50:07.068Z,14.87
2019-03-25T02:52:36.903Z,13.18
2019-03-25T02:55:07.538Z,11.83
2019-03-25T02:57:37.002Z,13.13
2019-03-25T03:00:09.672Z,11.63
2019-03-25T03:02:38.792Z,9.38
2019-03-25T03:05:09.403Z,11.22
2019-03-25T03:07:38.564Z,9.90
2019-03-25T03:10:09.690Z,13.43
2019-03-25T03:12:39.214Z,10.08
2019-03-25T03:15:08.610Z,12.65
2019-03-25T03:17:37.707Z,11.63
2019-03-25T03:20:08.155Z,10.13
2019-03-25T03:22:37.829Z,11.88
2019-03-25T03:25:07.077Z,10.65
2019-03-25T03:27:36.198Z,11.88
2019-03-25T03:30:07.075Z,11.33
2019-03-25T03:32:36.592Z,8.95
2019-03-25T03:35:07.351Z,12.45
2019-03-25T03:37:37.008Z,11.83
2019-03-25T03:40:09.073Z,10.68
2019-03-25T03:42:38.425Z,13.95
2019-03-25T03:45:08.011Z,10.75
2019-03-25T03:47:37.242Z,9.08
2019-03-25T03:50:07.945Z,8.20
2019-03-25T03:52:37.417Z,9.88
2019-03-25T03:55:07.227Z,8.35
2019-03-25T03:57:36.949Z,11.80
2019-03-25T04:00:08.104Z,11.35
2019-03-25T04:02:37.201Z,8.05
2019-03-25T04:05:06.417Z,9.18
2019-03-25T04:07:35.602Z,8.00
2019-03-25T04:10:06.501Z,6.67
2019-03-25T04:12:36.037Z,11.95
2019-03-25T04:15:07.202Z,7.00
2019-03-25T04:17:36.310Z,7.20
2019-03-25T04:20:07.427Z,10.68
2019-03-25T04:22:36.575Z,15.55
2019-03-25T04:25:07.105Z,12.23
2019-03-25T04:27:36.195Z,9.83
2019-03-25T04:30:06.869Z,7.85
2019-03-25T04:32:35.974Z,9.18
2019-03-25T04:35:05.940Z,11.80
2019-03-25T04:37:35.326Z,16.27
2019-03-25T04:40:07.014Z,32.45
2019-03-25T04:42:36.122Z,14.25
2019-03-25T04:45:08.540Z,14.50
2019-03-25T04:47:37.657Z,18.80
2019-03-25T04:50:07.481Z,13.35
2019-03-25T04:52:36.652Z,16.32
2019-03-25T04:55:07.667Z,16.62
2019-03-25T04:57:36.773Z,14.87
2019-03-25T05:00:07.768Z,18.40
2019-03-25T05:02:36.887Z,14.98
2019-03-25T05:05:08.322Z,17.75
2019-03-25T05:07:37.656Z,18.67
2019-03-25T05:10:08.001Z,18.20
2019-03-25T05:12:37.036Z,11.55
2019-03-25T05:15:08.104Z,18.67
2019-03-25T05:17:37.260Z,15.48
2019-03-25T05:20:07.365Z,13.98
2019-03-25T05:22:36.584Z,13.48
2019-03-25T05:25:08.219Z,24.02
2019-03-25T05:27:37.380Z,24.57
2019-03-25T05:30:08.495Z,13.58
2019-03-25T05:32:37.758Z,17.90
2019-03-25T05:35:07.791Z,18.35
2019-03-25T05:37:36.928Z,18.52
2019-03-25T05:40:06.642Z,22.67
2019-03-25T05:42:35.786Z,20.32
2019-03-25T05:45:08.039Z,20.32
2019-03-25T05:47:37.153Z,25.85
2019-03-25T05:50:09.063Z,18.60
2019-03-25T05:52:38.705Z,21.27
2019-03-25T05:55:07.904Z,23.50
2019-03-25T05:57:37.043Z,21.70
2019-03-25T06:00:07.144Z,19.02
2019-03-25T06:02:36.277Z,23.77
2019-03-25T06:05:06.891Z,18.37
2019-03-25T06:07:36.460Z,20.72
2019-03-25T06:10:07.029Z,20.72
2019-03-25T06:12:36.240Z,24.23
2019-03-25T06:15:07.497Z,22.82
2019-03-25T06:17:36.935Z,16.27
2019-03-25T06:20:07.263Z,25.55
2019-03-25T06:22:36.722Z,22.58
2019-03-25T06:25:07.660Z,20.85
2019-03-25T06:27:36.837Z,21.70
2019-03-25T06:30:09.469Z,21.87
2019-03-25T06:32:38.515Z,18.92
2019-03-25T06:35:09.080Z,15.68
2019-03-25T06:37:38.728Z,21.40
2019-03-25T06:40:08.636Z,23.02
2019-03-25T06:42:37.760Z,22.73
2019-03-25T06:45:08.026Z,14.63
2019-03-25T06:47:37.150Z,18.32
2019-03-25T06:50:10.083Z,10.60
2019-03-25T06:52:39.741Z,12.25
2019-03-25T06:55:09.318Z,10.18
2019-03-25T06:57:38.778Z,11.90
2019-03-25T07:00:09.319Z,12.28
2019-03-25T07:02:38.436Z,8.58
2019-03-25T07:05:08.388Z,9.93
2019-03-25T07:07:37.856Z,6.25
2019-03-25T07:10:07.954Z,5.28
2019-03-25T07:12:38.255Z,8.55
2019-03-25T07:15:09.815Z,8.68
2019-03-25T07:17:38.905Z,7.85
2019-03-25T07:20:08.863Z,7.87
2019-03-25T07:22:38.004Z,7.83
2019-03-25T07:25:07.722Z,7.45
2019-03-25T07:27:37.422Z,6.78
2019-03-25T07:30:11.492Z,8.55
2019-03-25T07:32:40.463Z,7.78
2019-03-25T07:35:09.717Z,3.25
2019-03-25T07:37:38.876Z,4.70
2019-03-25T07:40:10.904Z,1.85
2019-03-25T07:42:40.016Z,7.92
2019-03-25T07:45:09.386Z,3.90
2019-03-25T07:47:38.475Z,6.90
2019-03-25T07:50:08.514Z,3.37
2019-03-25T07:52:38.363Z,6.28
2019-03-25T07:55:07.721Z,3.27
2019-03-25T07:57:43.735Z,9.48
2019-03-25T08:00:13.839Z,6.85
2019-03-25T08:02:41.596Z,7.37
2019-03-25T08:05:10.812Z,8.00
2019-03-25T08:07:39.952Z,4.80
2019-03-25T08:10:10.227Z,6.20
2019-03-25T08:12:39.339Z,11.43
2019-03-25T08:15:09.026Z,4.33
2019-03-25T08:17:38.161Z,3.90
2019-03-25T08:20:08.959Z,9.43
2019-03-25T08:22:38.458Z,9.58
2019-03-25T08:25:08.355Z,6.05
2019-03-25T08:27:37.426Z,7.83
2019-03-25T08:30:08.626Z,6.85
2019-03-25T08:32:37.760Z,10.53
2019-03-25T08:35:07.742Z,5.67
2019-03-25T08:37:37.424Z,8.80
2019-03-25T08:40:07.658Z,5.33
2019-03-25T08:42:36.677Z,6.33
2019-03-25T08:45:07.424Z,10.75
2019-03-25T08:47:36.563Z,8.55
2019-03-25T08:50:09.493Z,16.93
2019-03-25T08:52:39.186Z,6.47
2019-03-25T08:55:08.539Z,7.08
2019-03-25T08:57:37.642Z,8.55
2019-03-25T09:00:09.163Z,7.00
2019-03-25T09:02:38.240Z,11.12
2019-03-25T09:05:08.464Z,8.28
2019-03-25T09:07:37.866Z,7.58
2019-03-25T09:10:08.197Z,7.75
2019-03-25T09:12:37.545Z,7.37
2019-03-25T09:15:11.075Z,7.05
2019-03-25T09:17:40.225Z,12.95
2019-03-25T09:20:10.148Z,7.03
2019-03-25T09:22:39.864Z,8.80
2019-03-25T09:25:09.110Z,9.20
2019-03-25T09:27:38.419Z,8.38
2019-03-25T09:30:10.349Z,6.92
2019-03-25T09:32:39.700Z,6.00
2019-03-25T09:35:09.305Z,8.50
2019-03-25T09:37:39.306Z,12.35
2019-03-25T09:40:10.986Z,9.60
2019-03-25T09:42:40.133Z,10.68
2019-03-25T09:45:10.115Z,9.95
2019-03-25T09:47:39.306Z,9.05
2019-03-25T09:50:08.866Z,6.58
2019-03-25T09:52:41.432Z,9.68
2019-03-25T09:55:10.800Z,10.25
2019-03-25T09:57:39.832Z,9.00
2019-03-25T10:00:12.537Z,7.20
2019-03-25T10:02:41.691Z,10.38
2019-03-25T10:05:10.944Z,7.62
2019-03-25T10:07:40.400Z,7.47
2019-03-25T10:10:09.844Z,6.62
2019-03-25T10:12:41.594Z,5.67
2019-03-25T10:15:11.062Z,4.67
2019-03-25T10:17:40.172Z,4.12
2019-03-25T10:20:09.640Z,2.27
2019-03-25T10:22:38.795Z,2.95
2019-03-25T10:25:10.259Z,3.90
2019-03-25T10:27:39.767Z,4.42
2019-03-25T10:30:14.311Z,1.75
2019-03-25T10:32:47.752Z,4.08
2019-03-25T10:35:17.067Z,5.08
2019-03-25T10:37:46.217Z,2.20
2019-03-25T10:40:16.258Z,2.27
2019-03-25T10:42:48.242Z,1.55
2019-03-25T10:45:17.716Z,1.52
2019-03-25T10:47:49.323Z,1.80
2019-03-25T10:50:18.139Z,1.17
2019-03-25T10:52:47.308Z,1.92
2019-03-25T10:55:16.419Z,1.42
2019-03-25T10:57:45.772Z,3.17
2019-03-25T11:00:15.543Z,1.85
2019-03-25T11:02:44.661Z,2.12
2019-03-25T11:05:14.485Z,3.25
2019-03-25T11:07:43.748Z,1.57
2019-03-25T11:10:13.249Z,4.47
2019-03-25T11:12:42.543Z,3.20
2019-03-25T11:15:11.863Z,3.35
2019-03-25T11:17:41.024Z,2.35
2019-03-25T11:20:10.746Z,3.90
2019-03-25T11:22:40.209Z,5.25
2019-03-25T11:25:10.030Z,6.53
2019-03-25T11:27:39.146Z,4.55
2019-03-25T11:30:09.917Z,3.30
2019-03-25T11:32:39.161Z,4.10
2019-03-25T11:35:09.874Z,4.22
2019-03-25T11:37:39.386Z,3.35
2019-03-25T11:40:09.742Z,1.87
2019-03-25T11:42:38.865Z,2.22
2019-03-25T11:45:09.207Z,1.85
2019-03-25T11:47:38.373Z,2.58
2019-03-25T11:50:08.241Z,2.52
2019-03-25T11:52:37.440Z,2.10
2019-03-25T11:55:07.464Z,3.40
2019-03-25T11:57:36.487Z,1.65
2019-03-25T12:00:10.261Z,1.30
2019-03-25T12:02:39.788Z,2.65
2019-03-25T12:05:09.605Z,1.60
2019-03-25T12:07:39.564Z,1.60
2019-03-25T12:10:09.117Z,2.70
2019-03-25T12:12:38.288Z,2.85
2019-03-25T12:15:11.992Z,2.67
2019-03-25T12:17:41.138Z,2.52
2019-03-25T12:20:10.628Z,1.80
2019-03-25T12:22:39.816Z,2.75
2019-03-25T12:25:09.863Z,3.33
2019-03-25T12:27:39.213Z,3.60
2019-03-25T12:30:10.220Z,3.55
2019-03-25T12:32:39.595Z,3.85
2019-03-25T12:35:09.202Z,3.72
2019-03-25T12:37:38.420Z,2.72
2019-03-25T12:40:08.244Z,2.15
2019-03-25T12:42:37.308Z,5.22
2019-03-25T12:45:10.197Z,4.40
2019-03-25T12:47:39.317Z,2.40
2019-03-25T12:50:08.939Z,3.05
2019-03-25T12:52:42.331Z,3.90
2019-03-25T12:55:13.324Z,4.03
2019-03-25T12:57:42.487Z,3.80
2019-03-25T13:00:14.527Z,1.55
2019-03-25T13:02:43.865Z,3.47
2019-03-25T13:05:13.460Z,4.87
2019-03-25T13:07:42.569Z,1.72
2019-03-25T13:10:12.271Z,3.25
2019-03-25T13:12:41.601Z,3.25
2019-03-25T13:15:10.905Z,2.02
2019-03-25T13:17:40.349Z,4.60
2019-03-25T13:20:09.891Z,2.67
2019-03-25T13:22:39.115Z,4.35
2019-03-25T13:25:08.582Z,2.75
2019-03-25T13:27:37.803Z,2.10
2019-03-25T13:30:09.827Z,4.10
2019-03-25T13:32:39.054Z,1.52
2019-03-25T13:35:09.091Z,3.08
2019-03-25T13:37:38.444Z,1.25
2019-03-25T13:40:08.403Z,2.00
2019-03-25T13:42:37.662Z,1.72
2019-03-25T13:45:08.074Z,1.35
2019-03-25T13:47:37.196Z,1.25
2019-03-25T13:50:08.072Z,1.98
2019-03-25T13:52:37.789Z,1.75
2019-03-25T13:55:07.586Z,2.47
2019-03-25T13:57:36.975Z,1.10
2019-03-25T14:00:08.290Z,1.00
2019-03-25T14:02:37.515Z,1.32
2019-03-25T14:05:07.541Z,1.17
2019-03-25T14:07:36.953Z,1.60
2019-03-25T14:10:08.080Z,1.52
2019-03-25T14:12:37.261Z,1.00
2019-03-25T14:15:08.422Z,0.80
2019-03-25T14:17:37.606Z,1.70
2019-03-25T14:20:08.394Z,1.45
2019-03-25T14:22:37.692Z,2.02
2019-03-25T14:25:08.474Z,2.17
2019-03-25T14:27:38.160Z,1.60
2019-03-25T14:30:14.449Z,1.42
2019-03-25T14:32:39.770Z,1.75
2019-03-25T14:35:09.202Z,2.15
2019-03-25T14:37:38.371Z,2.35
2019-03-25T14:40:08.758Z,4.08
2019-03-25T14:42:38.017Z,1.90
2019-03-25T14:45:08.177Z,2.70
2019-03-25T14:47:37.678Z,1.20
2019-03-25T14:50:08.297Z,1.85
2019-03-25T14:52:37.821Z,1.47
2019-03-25T14:55:07.390Z,2.77
2019-03-25T14:57:42.389Z,4.37
2019-03-25T15:00:09.035Z,2.30
2019-03-25T15:02:38.547Z,2.77
2019-03-25T15:05:08.508Z,2.87
2019-03-25T15:07:37.798Z,4.30
2019-03-25T15:10:07.646Z,3.10
2019-03-25T15:12:36.796Z,1.10
2019-03-25T15:15:08.008Z,1.72
2019-03-25T15:17:37.544Z,3.02
2019-03-25T15:20:10.080Z,2.27
2019-03-25T15:22:39.545Z,3.87
2019-03-25T15:25:10.491Z,2.72
2019-03-25T15:27:39.702Z,3.35
2019-03-25T15:30:10.461Z,3.75
2019-03-25T15:32:39.597Z,3.35
2019-03-25T15:35:09.123Z,2.77
2019-03-25T15:37:38.249Z,4.10
2019-03-25T15:40:12.453Z,3.90
2019-03-25T15:42:41.662Z,1.90
2019-03-25T15:45:11.484Z,2.33
2019-03-25T15:47:42.730Z,2.20
2019-03-25T15:50:12.256Z,4.05
2019-03-25T15:52:42.072Z,2.75
2019-03-25T15:55:12.506Z,5.35
2019-03-25T15:57:41.670Z,4.60
2019-03-25T16:00:19.413Z,5.08
2019-03-25T16:02:48.833Z,4.67
2019-03-25T16:05:18.152Z,4.40
2019-03-25T16:07:47.462Z,4.15
2019-03-25T16:10:17.940Z,3.92
2019-03-25T16:12:47.918Z,3.98
2019-03-25T16:15:19.984Z,3.05
2019-03-25T16:17:49.233Z,5.80
2019-03-25T16:20:18.861Z,32.48
2019-03-25T16:22:47.948Z,17.35
2019-03-25T16:25:23.066Z,9.00
2019-03-25T16:27:52.117Z,10.85
2019-03-25T16:30:21.245Z,9.58
2019-03-25T16:32:50.832Z,7.65
2019-03-25T16:35:20.085Z,8.15
2019-03-25T16:37:49.224Z,7.40
2019-03-25T16:40:18.713Z,6.85
2019-03-25T16:42:47.892Z,7.17
2019-03-25T16:45:17.819Z,7.30
2019-03-25T16:47:46.969Z,7.33
2019-03-25T16:50:16.648Z,9.50
2019-03-25T16:52:46.974Z,8.23
2019-03-25T16:55:19.953Z,6.12
2019-03-25T16:57:49.714Z,6.00
2019-03-25T17:00:27.277Z,7.10
2019-03-25T17:02:49.905Z,6.12
2019-03-25T17:05:19.226Z,4.95
2019-03-25T17:07:48.351Z,6.20
2019-03-25T17:10:17.598Z,4.17
2019-03-25T17:12:46.961Z,4.75
2019-03-25T17:15:16.672Z,6.17
2019-03-25T17:17:45.794Z,4.75
2019-03-25T17:20:15.342Z,6.20
2019-03-25T17:22:44.508Z,5.20
2019-03-25T17:25:14.114Z,4.37
2019-03-25T17:27:43.511Z,5.78
2019-03-25T17:30:17.349Z,4.00
2019-03-25T17:32:46.580Z,6.65
2019-03-25T17:35:15.761Z,5.97
2019-03-25T17:37:44.879Z,3.75
2019-03-25T17:40:14.393Z,3.27
2019-03-25T17:42:43.540Z,5.70
2019-03-25T17:45:13.443Z,4.70
2019-03-25T17:47:45.422Z,4.90
2019-03-25T17:50:15.019Z,6.60
2019-03-25T17:52:44.212Z,4.05
2019-03-25T17:55:13.939Z,3.33
2019-03-25T17:57:43.089Z,4.80
2019-03-25T18:00:13.410Z,6.62
2019-03-25T18:02:42.570Z,4.65
2019-03-25T18:05:12.222Z,5.05
2019-03-25T18:07:41.709Z,8.25
2019-03-25T18:10:11.544Z,5.37
2019-03-25T18:12:40.776Z,7.05
2019-03-25T18:15:12.081Z,7.65
2019-03-25T18:17:41.656Z,5.75
2019-03-25T18:20:18.474Z,6.17
2019-03-25T18:22:41.929Z,10.90
2019-03-25T18:25:11.231Z,4.78
2019-03-25T18:27:40.340Z,9.05
2019-03-25T18:30:10.045Z,5.37
2019-03-25T18:32:39.258Z,6.22
2019-03-25T18:35:08.444Z,3.33
2019-03-25T18:37:37.578Z,4.37
2019-03-25T18:40:07.000Z,3.98
2019-03-25T18:42:36.132Z,7.40
2019-03-25T18:45:07.237Z,5.40
2019-03-25T18:47:36.363Z,7.45
2019-03-25T18:50:08.745Z,6.62
2019-03-25T18:52:37.862Z,7.25
2019-03-25T18:55:10.782Z,5.03
2019-03-25T18:57:39.951Z,6.75
2019-03-25T19:00:10.052Z,3.30
2019-03-25T19:02:39.734Z,8.73
2019-03-25T19:05:08.949Z,5.62
2019-03-25T19:07:38.238Z,3.87
2019-03-25T19:10:10.249Z,5.42
2019-03-25T19:12:39.427Z,4.08
2019-03-25T19:15:09.256Z,6.03
2019-03-25T19:17:38.938Z,3.95
2019-03-25T19:20:08.055Z,4.53
2019-03-25T19:22:37.224Z,5.05
2019-03-25T19:25:06.990Z,4.90
2019-03-25T19:27:36.136Z,6.30
2019-03-25T19:30:07.894Z,6.15
2019-03-25T19:32:37.283Z,5.33
2019-03-25T19:35:09.743Z,4.75
2019-03-25T19:37:38.857Z,3.10
2019-03-25T19:40:08.827Z,6.70
2019-03-25T19:42:37.938Z,6.15
2019-03-25T19:45:08.945Z,4.40
2019-03-25T19:47:38.100Z,4.62
2019-03-25T19:50:07.929Z,8.93
2019-03-25T19:52:37.076Z,5.45
2019-03-25T19:55:06.553Z,3.80
2019-03-25T19:57:35.644Z,5.78
2019-03-25T20:00:07.418Z,4.22
2019-03-25T20:02:37.398Z,10.60
2019-03-25T20:05:09.768Z,4.45
2019-03-25T20:07:38.889Z,4.75
2019-03-25T20:10:10.357Z,5.20
2019-03-25T20:12:41.586Z,3.55
2019-03-25T20:15:11.664Z,5.22
2019-03-25T20:17:40.865Z,6.33
2019-03-25T20:20:10.092Z,4.33
2019-03-25T20:22:39.355Z,5.67
2019-03-25T20:25:08.538Z,4.85
2019-03-25T20:27:38.008Z,7.00
2019-03-25T20:30:11.766Z,8.65
2019-03-25T20:32:40.984Z,6.30
2019-03-25T20:35:10.579Z,5.22
2019-03-25T20:37:39.641Z,5.00
2019-03-25T20:40:09.229Z,5.08
2019-03-25T20:42:38.751Z,4.53
2019-03-25T20:45:09.098Z,5.03
2019-03-25T20:47:39.844Z,7.08
2019-03-25T20:50:08.994Z,5.17
2019-03-25T20:52:38.130Z,8.55
2019-03-25T20:55:08.702Z,5.30
2019-03-25T20:57:40.487Z,4.37
2019-03-25T21:00:12.894Z,7.92
2019-03-25T21:02:45.251Z,5.22
2019-03-25T21:05:14.958Z,4.28
2019-03-25T21:07:44.225Z,8.23
2019-03-25T21:10:13.851Z,4.33
2019-03-25T21:12:43.176Z,3.92
2019-03-25T21:15:17.051Z,4.28
2019-03-25T21:17:52.341Z,6.42
2019-03-25T21:20:23.593Z,5.90
2019-03-25T21:22:55.728Z,5.83
2019-03-25T21:25:24.888Z,6.65
2019-03-25T21:27:54.106Z,5.90
2019-03-25T21:30:23.128Z,6.15
2019-03-25T21:32:58.162Z,6.80
2019-03-25T21:35:22.987Z,5.40
2019-03-25T21:37:52.739Z,4.90
2019-03-25T21:40:21.945Z,4.80
2019-03-25T21:42:51.189Z,7.65
2019-03-25T21:45:23.329Z,6.03
2019-03-25T21:47:52.451Z,6.00
2019-03-25T21:50:21.678Z,5.35
2019-03-25T21:52:50.809Z,3.37
2019-03-25T21:55:27.156Z,6.83
2019-03-25T21:57:56.257Z,7.60
2019-03-25T22:00:25.454Z,7.37
2019-03-25T22:02:54.902Z,7.67
2019-03-25T22:05:24.119Z,6.55
2019-03-25T22:07:53.271Z,5.80
2019-03-25T22:10:22.906Z,5.42
2019-03-25T22:12:52.252Z,5.85
2019-03-25T22:15:21.405Z,4.78
2019-03-25T22:17:50.763Z,7.35
2019-03-25T22:20:19.826Z,7.05
2019-03-25T22:22:49.298Z,6.47
2019-03-25T22:25:18.440Z,5.53
2019-03-25T22:27:47.866Z,5.90
2019-03-25T22:30:17.191Z,6.00
2019-03-25T22:32:46.632Z,6.80
2019-03-25T22:35:16.048Z,5.75
2019-03-25T22:37:45.162Z,9.68
2019-03-25T22:40:14.390Z,6.75
2019-03-25T22:42:43.494Z,5.75
2019-03-25T22:45:14.605Z,4.65
2019-03-25T22:47:43.858Z,5.62
2019-03-25T22:50:15.891Z,4.28
2019-03-25T22:52:44.931Z,9.73
2019-03-25T22:55:14.238Z,6.33
2019-03-25T22:57:43.278Z,4.97
2019-03-25T23:00:14.249Z,3.45
2019-03-25T23:02:43.380Z,6.40
2019-03-25T23:05:12.647Z,3.25
2019-03-25T23:07:42.015Z,5.10
2019-03-25T23:10:11.817Z,3.80
2019-03-25T23:12:40.897Z,2.95
2019-03-25T23:15:10.130Z,4.15
2019-03-25T23:17:39.943Z,5.58
2019-03-25T23:20:09.256Z,4.47
2019-03-25T23:22:38.373Z,2.87
2019-03-25T23:25:09.874Z,3.62
2019-03-25T23:27:38.670Z,4.45
2019-03-25T23:30:08.693Z,2.45
2019-03-25T23:32:39.545Z,4.55
2019-03-25T23:35:08.747Z,4.33
2019-03-25T23:37:37.996Z,3.20
2019-03-25T23:40:07.836Z,5.08
2019-03-25T23:42:36.964Z,2.70
2019-03-25T23:45:07.388Z,6.20
2019-03-25T23:47:36.455Z,5.80
2019-03-25T23:50:06.764Z,8.18
2019-03-25T23:52:35.915Z,3.33
2019-03-25T23:55:06.614Z,4.00
2019-03-25T23:57:36.131Z,3.72
